Time;durP1;ratioP1;P1;durP2;ratioP2;P2;SDS_P1;SDS_P2;PMS_P1;PMS_P2;Temp;Humidity;BMP_temperature;BMP_pressure;BME280_temperature;BME280_humidity;BME280_pressure;Samples;Min_cycle;Max_cycle;Signal;HPM_P1;HPM_P2
2021/11/25 00:01:55;;;;;;;;;22.00;21.75;;;;;6.44;63.13;100418.94;5049430;28;45473;-77
2021/11/25 00:04:20;;;;;;;;;28.00;20.00;;;;;6.37;64.38;100405.16;5043277;28;45447;-78
2021/11/25 00:06:46;;;;;;;;;20.25;18.50;;;;;6.34;63.98;100413.09;5074576;28;45414;-82
2021/11/25 00:09:11;;;;;;;;;25.00;24.75;;;;;6.28;64.01;100414.09;5042531;28;45565;-75
2021/11/25 00:11:37;;;;;;;;;25.75;19.00;;;;;6.27;64.19;100425.44;5049899;28;44881;-79
2021/11/25 00:14:03;;;;;;;;;27.00;21.75;;;;;6.29;64.69;100436.69;5047521;28;47093;-77
2021/11/25 00:16:29;;;;;;;;;28.50;26.00;;;;;6.34;65.37;100438.34;5044044;28;45439;-79
2021/11/25 00:18:55;;;;;;;;;25.00;21.00;;;;;6.36;64.31;100426.09;5079539;28;44817;-78
2021/11/25 00:21:21;;;;;;;;;24.00;21.25;;;;;6.32;65.16;100419.22;5052878;28;45064;-76
2021/11/25 00:23:48;;;;;;;;;24.00;22.25;;;;;6.14;65.25;100395.28;5053013;28;45380;-73
2021/11/25 00:26:13;;;;;;;;;24.75;23.75;;;;;6.31;64.87;100418.38;5052818;28;45175;-77
2021/11/25 00:28:39;;;;;;;;;26.00;21.50;;;;;6.33;65.28;100420.94;5050360;28;45360;-78
2021/11/25 00:31:05;;;;;;;;;29.25;23.50;;;;;6.33;65.07;100413.97;5043655;28;44826;-78
2021/11/25 00:33:31;;;;;;;;;28.25;25.00;;;;;6.34;64.70;100410.47;5039836;28;45484;-80
2021/11/25 00:35:57;;;;;;;;;29.00;24.25;;;;;6.34;65.92;100410.47;5044344;28;45426;-79
2021/11/25 00:38:22;;;;;;;;;39.00;28.00;;;;;6.34;65.11;100409.59;5080418;27;45267;-85
2021/11/25 00:40:48;;;;;;;;;30.00;26.25;;;;;6.33;64.87;100405.28;5042706;28;45398;-83
2021/11/25 00:43:14;;;;;;;;;25.00;25.00;;;;;6.13;64.81;100367.47;5042566;28;45335;-84
2021/11/25 00:45:39;;;;;;;;;27.25;23.00;;;;;6.32;65.71;100396.59;5040743;28;45203;-84
2021/11/25 00:48:05;;;;;;;;;29.25;26.50;;;;;6.32;66.00;100393.97;5040515;28;45252;-84
2021/11/25 00:50:30;;;;;;;;;24.75;21.75;;;;;6.34;65.98;100401.75;5045492;28;45538;-80
2021/11/25 00:52:56;;;;;;;;;29.00;27.00;;;;;6.32;65.15;100401.81;5047080;28;46046;-77
2021/11/25 00:55:22;;;;;;;;;37.50;31.00;;;;;6.27;65.77;100391.47;5042564;28;45331;-80
2021/11/25 00:57:47;;;;;;;;;32.25;28.50;;;;;6.31;65.50;100384.44;5045378;28;45291;-71
2021/11/25 01:00:16;;;;;;;;;32.00;27.75;;;;;6.31;65.06;100392.25;5045235;28;45272;-77
2021/11/25 01:02:44;;;;;;;;;30.75;27.50;;;;;6.30;65.61;100395.78;5046632;28;46134;-78
2021/11/25 01:05:10;;;;;;;;;33.75;29.25;;;;;6.23;65.63;100387.22;5044926;28;45844;-71
2021/11/25 01:07:36;;;;;;;;;35.25;27.25;;;;;6.24;65.18;100385.47;5047722;28;44836;-76
2021/11/25 01:10:04;;;;;;;;;37.50;28.25;;;;;6.20;65.11;100396.91;5043328;28;45248;-73
2021/11/25 01:12:31;;;;;;;;;28.75;27.00;;;;;6.14;65.79;100392.69;5038601;27;46433;-76
2021/11/25 01:14:57;;;;;;;;;24.50;24.50;;;;;6.15;65.67;100394.41;5042269;28;45294;-72
2021/11/25 01:17:22;;;;;;;;;29.75;27.25;;;;;6.12;65.67;100402.31;5047958;28;45367;-76
2021/11/25 01:19:48;;;;;;;;;32.75;28.75;;;;;6.11;65.98;100395.38;5047135;28;45444;-76
2021/11/25 01:22:13;;;;;;;;;33.50;32.00;;;;;6.15;65.71;100399.63;5044318;28;45377;-71
2021/11/25 01:24:39;;;;;;;;;32.25;29.25;;;;;6.19;65.37;100405.63;5046961;28;45168;-72
2021/11/25 01:27:04;;;;;;;;;24.75;21.00;;;;;6.08;65.71;100385.00;5054137;28;44858;-79
2021/11/25 01:29:30;;;;;;;;;30.25;24.25;;;;;6.15;65.13;100391.78;5050462;28;45251;-71
2021/11/25 01:31:55;;;;;;;;;27.50;24.50;;;;;6.12;65.81;100392.72;5046053;28;45080;-85
2021/11/25 01:34:21;;;;;;;;;29.50;23.50;;;;;6.14;65.50;100384.84;5050752;28;45231;-80
2021/11/25 01:36:46;;;;;;;;;34.50;28.75;;;;;6.21;65.48;100401.22;5048142;28;45586;-85
2021/11/25 01:39:12;;;;;;;;;24.75;23.75;;;;;6.20;65.16;100409.97;5045954;28;45344;-83
2021/11/25 01:41:38;;;;;;;;;23.25;19.75;;;;;6.18;64.18;100409.16;5045220;28;46253;-86
2021/11/25 01:44:04;;;;;;;;;26.00;23.00;;;;;6.10;64.94;100396.25;5043700;28;45291;-83
2021/11/25 01:46:30;;;;;;;;;23.25;20.75;;;;;6.14;65.21;100397.91;5080965;28;45307;-77
2021/11/25 01:48:55;;;;;;;;;21.00;20.75;;;;;6.12;64.27;100386.63;5051236;28;45240;-84
2021/11/25 01:51:22;;;;;;;;;26.75;23.50;;;;;6.12;63.92;100389.25;5046042;28;45363;-82
2021/11/25 01:53:48;;;;;;;;;23.00;20.00;;;;;6.09;64.75;100389.31;5051272;28;45332;-81
2021/11/25 01:56:17;;;;;;;;;30.50;27.00;;;;;6.10;64.85;100394.53;5053562;28;45326;-79
2021/11/25 01:58:45;;;;;;;;;24.00;20.75;;;;;6.10;64.48;100394.53;5057783;28;44971;-75
2021/11/25 02:01:13;;;;;;;;;23.75;21.50;;;;;6.10;64.14;100397.13;5048173;28;45341;-76
2021/11/25 02:03:40;;;;;;;;;24.25;22.00;;;;;6.11;64.44;100393.63;5042233;28;45492;-84
2021/11/25 02:06:06;;;;;;;;;26.25;23.00;;;;;6.10;63.97;100391.91;5038081;28;45244;-82
2021/11/25 02:08:31;;;;;;;;;22.00;22.00;;;;;6.07;63.79;100388.50;5038629;28;45390;-84
2021/11/25 02:10:58;;;;;;;;;20.25;18.50;;;;;6.06;62.97;100395.50;5046911;28;45359;-76
2021/11/25 02:13:24;;;;;;;;;22.25;20.50;;;;;6.07;63.50;100392.00;5053165;28;45174;-80
2021/11/25 02:15:51;;;;;;;;;24.75;17.00;;;;;6.08;63.14;100387.59;5050512;28;44695;-77
2021/11/25 02:18:22;;;;;;;;;25.50;19.50;;;;;6.12;63.22;100391.84;5086235;28;44931;-76
2021/11/25 02:20:51;;;;;;;;;25.00;18.75;;;;;6.14;63.10;100390.06;5054907;28;46337;-78
2021/11/25 02:23:17;;;;;;;;;20.00;16.00;;;;;6.13;62.66;100386.63;5055759;28;45253;-75
2021/11/25 02:25:43;;;;;;;;;19.75;18.50;;;;;6.12;62.09;100390.13;5055365;28;45424;-74
2021/11/25 02:28:09;;;;;;;;;23.00;18.00;;;;;6.17;62.62;100387.38;5050938;28;44869;-78
2021/11/25 02:30:36;;;;;;;;;16.50;16.50;;;;;6.14;62.22;100375.28;5050965;28;46342;-84
2021/11/25 02:33:02;;;;;;;;;18.25;17.75;;;;;6.16;62.17;100377.81;5051284;28;45151;-81
2021/11/25 02:35:34;;;;;;;;;22.75;21.00;;;;;6.20;62.33;100382.06;5088036;28;44816;-77
2021/11/25 02:38:00;;;;;;;;;24.00;17.50;;;;;6.21;62.45;100375.97;5056520;28;45019;-83
2021/11/25 02:40:30;;;;;;;;;23.00;20.00;;;;;6.22;63.15;100372.44;5058340;27;45326;-79
2021/11/25 02:43:00;;;;;;;;;27.00;18.75;;;;;6.26;62.54;100379.31;5055901;28;44748;-76
2021/11/25 02:45:27;;;;;;;;;23.75;18.50;;;;;6.25;62.69;100366.31;5051711;28;45246;-86
2021/11/25 02:47:54;;;;;;;;;20.75;18.75;;;;;6.23;62.54;100371.56;5046830;28;45253;-80
2021/11/25 02:50:23;;;;;;;;;20.50;20.25;;;;;6.24;62.77;100385.47;5042537;28;45364;-85
2021/11/25 02:52:48;;;;;;;;;29.25;24.75;;;;;6.17;62.63;100361.25;5037962;28;45306;-84
2021/11/25 02:55:17;;;;;;;;;22.50;17.75;;;;;6.17;63.30;100363.88;5039756;28;45301;-84
2021/11/25 02:57:43;;;;;;;;;16.50;16.50;;;;;6.21;62.66;100368.13;5070075;27;45800;-85
2021/11/25 03:00:32;;;;;;;;;20.25;18.25;;;;;6.23;63.02;100366.31;5035424;28;45425;-85
2021/11/25 03:03:03;;;;;;;;;17.75;17.50;;;;;6.26;62.26;100368.00;5036166;28;45376;-83
2021/11/25 03:05:29;;;;;;;;;25.50;19.75;;;;;6.20;62.46;100365.56;5039017;28;45633;-85
2021/11/25 03:07:55;;;;;;;;;18.75;14.75;;;;;6.22;63.21;100371.59;5038143;28;45526;-83
2021/11/25 03:10:21;;;;;;;;;18.50;17.75;;;;;6.18;62.57;100360.38;5035809;28;46202;-87
2021/11/25 03:12:46;;;;;;;;;20.25;18.75;;;;;6.23;62.63;100366.31;5035375;28;45336;-80
2021/11/25 03:15:12;;;;;;;;;21.25;18.75;;;;;6.23;63.62;100368.94;5036911;28;45470;-84
2021/11/25 03:17:38;;;;;;;;;22.00;18.00;;;;;6.23;63.05;100365.47;5036198;28;45577;-85
2021/11/25 03:20:04;;;;;;;;;24.75;22.00;;;;;6.23;63.00;100362.88;5041885;28;46095;-77
2021/11/25 03:22:29;;;;;;;;;28.00;21.25;;;;;6.21;63.10;100355.06;5041702;28;45184;-84
2021/11/25 03:24:56;;;;;;;;;22.50;15.75;;;;;6.20;63.60;100355.97;5042436;28;45194;-80
2021/11/25 03:27:22;;;;;;;;;21.25;20.75;;;;;6.14;64.36;100340.44;5051166;28;44781;-81
2021/11/25 03:29:47;;;;;;;;;23.00;22.25;;;;;5.75;63.94;100272.66;5041729;28;46133;-83
2021/11/25 03:32:12;;;;;;;;;23.50;20.25;;;;;6.16;63.29;100345.66;5044744;28;45422;-85
2021/11/25 03:34:38;;;;;;;;;29.50;22.00;;;;;6.11;63.55;100340.53;5041608;28;45144;-84
2021/11/25 03:37:03;;;;;;;;;24.00;20.00;;;;;6.10;64.09;100346.66;5037800;28;45398;-72
2021/11/25 03:39:29;;;;;;;;;22.75;19.00;;;;;6.09;63.95;100353.63;5033776;28;45526;-75
2021/11/25 03:41:54;;;;;;;;;23.75;20.00;;;;;5.99;64.00;100334.69;5034412;28;45416;-82
2021/11/25 03:44:20;;;;;;;;;26.50;24.25;;;;;6.08;64.54;100343.22;5035748;28;45414;-84
2021/11/25 03:46:45;;;;;;;;;24.25;22.50;;;;;6.08;64.61;100353.66;5034972;28;45365;-71
2021/11/25 03:49:10;;;;;;;;;27.50;22.50;;;;;6.07;64.30;100344.13;5033511;28;45358;-78
2021/11/25 03:51:36;;;;;;;;;24.75;20.00;;;;;6.12;64.34;100352.69;5033018;28;45254;-73
2021/11/25 03:54:01;;;;;;;;;33.25;22.00;;;;;6.11;64.23;100343.13;5035288;28;45381;-83
2021/11/25 03:56:26;;;;;;;;;29.00;24.50;;;;;6.12;64.50;100352.69;5036138;28;45424;-84
2021/11/25 03:58:52;;;;;;;;;21.25;20.50;;;;;6.09;65.21;100342.31;5037462;28;48327;-84
2021/11/25 04:01:17;;;;;;;;;28.50;21.25;;;;;5.83;64.27;100300.28;5039802;28;45334;-82
2021/11/25 04:03:44;;;;;;;;;26.50;22.75;;;;;6.04;64.79;100350.28;5038485;28;45507;-81
2021/11/25 04:06:09;;;;;;;;;28.00;23.00;;;;;6.01;65.06;100350.38;5037491;28;44914;-85
2021/11/25 04:08:35;;;;;;;;;31.75;29.50;;;;;5.92;65.25;100346.19;5036108;28;46071;-80
2021/11/25 04:11:03;;;;;;;;;31.25;24.25;;;;;5.76;64.93;100337.84;5042041;28;45205;-82
2021/11/25 04:13:29;;;;;;;;;31.00;24.50;;;;;5.66;65.39;100344.19;5044644;28;45216;-83
2021/11/25 04:15:54;;;;;;;;;27.00;24.50;;;;;5.53;65.80;100338.41;5037592;28;45438;-81
2021/11/25 04:18:20;;;;;;;;;31.00;26.00;;;;;5.35;65.98;100324.03;5037464;28;45388;-82
2021/11/25 04:20:45;;;;;;;;;31.00;27.75;;;;;5.26;66.14;100335.50;5039234;28;45355;-77
2021/11/25 04:23:11;;;;;;;;;29.75;27.00;;;;;5.23;67.31;100356.44;5049700;27;45226;-83
2021/11/25 04:25:36;;;;;;;;;35.50;31.25;;;;;5.12;68.01;100357.53;5050165;28;44917;-86
2021/11/25 04:28:03;;;;;;;;;36.75;29.75;;;;;5.03;68.17;100349.91;5053408;28;46288;-84
2021/11/25 04:35:52;;;;;;;;;48.25;36.75;;;;;4.86;69.10;100341.59;5042291;28;44711;-86
2021/11/25 04:38:21;;;;;;;;;46.00;37.00;;;;;4.80;69.99;100346.03;5052023;28;45353;-82
2021/11/25 04:40:59;;;;;;;;;54.50;40.00;;;;;4.71;71.10;100342.75;5045411;28;45330;-85
2021/11/25 04:43:26;;;;;;;;;52.25;39.75;;;;;4.67;70.97;100357.59;5038646;28;45237;-85
2021/11/25 04:45:52;;;;;;;;;52.25;39.00;;;;;4.50;71.60;100337.94;5040027;28;44822;-84
2021/11/25 04:48:20;;;;;;;;;51.75;40.25;;;;;4.51;71.47;100359.63;5036912;28;46165;-82
2021/11/25 04:50:46;;;;;;;;;54.50;39.25;;;;;4.44;72.15;100361.50;5042041;28;45416;-85
2021/11/25 04:53:13;;;;;;;;;53.00;39.00;;;;;4.41;72.61;100358.06;5044935;28;45527;-84
2021/11/25 04:55:39;;;;;;;;;50.50;40.25;;;;;4.31;72.22;100347.81;5046843;28;45245;-73
2021/11/25 04:58:04;;;;;;;;;51.50;41.50;;;;;4.30;72.87;100343.50;5045699;28;45290;-74
2021/11/25 05:00:30;;;;;;;;;57.75;41.75;;;;;4.03;73.58;100317.06;5041431;28;45224;-76
2021/11/25 05:02:56;;;;;;;;;53.00;43.25;;;;;4.23;73.17;100349.69;5038053;28;45269;-77
2021/11/25 05:05:22;;;;;;;;;56.50;43.00;;;;;4.18;73.41;100352.38;5037048;28;45256;-77
2021/11/25 05:07:48;;;;;;;;;55.25;40.00;;;;;4.13;73.73;100350.75;5037135;28;45430;-84
2021/11/25 05:10:13;;;;;;;;;58.25;46.00;;;;;4.06;74.25;100349.97;5036671;28;45220;-80
2021/11/25 05:12:39;;;;;;;;;49.50;37.25;;;;;4.01;74.45;100349.19;5038030;28;45419;-78
2021/11/25 05:15:09;;;;;;;;;55.75;43.00;;;;;4.02;74.83;100363.94;5037611;28;44831;-74
2021/11/25 05:17:36;;;;;;;;;58.75;44.00;;;;;3.91;75.15;100348.50;5035999;28;46131;-73
2021/11/25 05:20:04;;;;;;;;;60.00;44.00;;;;;3.84;74.99;100339.94;5038788;28;45867;-71
2021/11/25 05:22:29;;;;;;;;;64.00;47.25;;;;;3.86;74.83;100343.38;5038330;28;45387;-78
2021/11/25 05:24:55;;;;;;;;;60.75;45.00;;;;;3.67;75.03;100324.59;5035503;28;45501;-70
2021/11/25 05:27:20;;;;;;;;;59.00;44.00;;;;;3.77;75.31;100343.53;5040059;28;45720;-74
2021/11/25 05:29:47;;;;;;;;;57.00;46.00;;;;;3.76;75.69;100352.22;5036848;27;45478;-78
2021/11/25 05:32:15;;;;;;;;;53.75;43.00;;;;;3.72;75.33;100350.53;5035789;28;45314;-74
2021/11/25 05:34:41;;;;;;;;;62.50;41.50;;;;;3.67;75.59;100354.94;5037452;28;45177;-82
2021/11/25 05:37:06;;;;;;;;;57.00;47.25;;;;;3.65;76.43;100355.84;5038000;28;45989;-76
2021/11/25 05:39:32;;;;;;;;;64.25;49.00;;;;;3.54;76.29;100342.13;5037684;28;45262;-84
2021/11/25 05:41:57;;;;;;;;;63.75;47.25;;;;;3.40;75.93;100318.09;5043087;28;45198;-79
2021/11/25 05:44:22;;;;;;;;;61.50;46.50;;;;;3.50;76.45;100341.31;5045013;28;44859;-78
2021/11/25 05:46:48;;;;;;;;;61.25;47.25;;;;;3.55;77.31;100362.06;5049877;28;46248;-74
2021/11/25 05:49:13;;;;;;;;;63.00;47.00;;;;;3.52;76.42;100356.91;5046635;28;45309;-79
2021/11/25 05:51:39;;;;;;;;;67.75;49.50;;;;;3.46;76.55;100362.19;5039472;28;45939;-77
2021/11/25 05:54:04;;;;;;;;;58.25;44.75;;;;;3.38;77.43;100346.69;5041611;28;45331;-87
2021/11/25 05:56:30;;;;;;;;;63.50;47.50;;;;;3.39;77.30;100355.38;5037607;27;45308;-83
2021/11/25 05:58:56;;;;;;;;;63.75;45.75;;;;;3.38;77.54;100364.88;5037881;28;45399;-81
2021/11/25 06:01:23;;;;;;;;;66.00;48.50;;;;;3.39;77.33;100376.16;5039266;28;45290;-84
2021/11/25 06:03:51;;;;;;;;;62.75;48.25;;;;;3.36;77.00;100387.44;5037936;28;45301;-86
2021/11/25 06:06:17;;;;;;;;;64.00;49.00;;;;;3.35;76.99;100385.72;5036384;28;45372;-73
2021/11/25 06:08:42;;;;;;;;;65.75;48.75;;;;;3.33;76.62;100387.50;5036520;28;45363;-84
2021/11/25 06:11:07;;;;;;;;;60.00;46.50;;;;;3.28;77.16;100389.28;5039235;28;45344;-76
2021/11/25 06:13:33;;;;;;;;;67.00;49.75;;;;;3.22;77.14;100380.69;5037303;28;45463;-72
2021/11/25 06:15:58;;;;;;;;;69.00;48.25;;;;;3.16;78.05;100374.72;5036268;28;46467;-76
2021/11/25 06:18:24;;;;;;;;;68.25;49.75;;;;;3.25;77.39;100397.13;5038010;28;45329;-71
2021/11/25 06:20:49;;;;;;;;;63.50;50.00;;;;;3.23;77.47;100386.78;5039471;28;45380;-72
2021/11/25 06:23:16;;;;;;;;;62.50;48.50;;;;;3.15;77.50;100367.78;5040596;28;45596;-73
2021/11/25 06:25:43;;;;;;;;;65.25;49.25;;;;;3.20;77.62;100381.63;5042528;28;47491;-71
2021/11/25 06:28:09;;;;;;;;;66.00;51.50;;;;;3.21;77.79;100381.59;5049486;28;45357;-73
2021/11/25 06:30:35;;;;;;;;;65.50;50.00;;;;;3.18;78.07;100389.41;5049100;28;44771;-71
2021/11/25 06:33:00;;;;;;;;;67.75;50.00;;;;;3.15;78.07;100383.38;5045427;27;45625;-73
2021/11/25 06:35:25;;;;;;;;;64.50;49.25;;;;;3.12;77.88;100389.50;5043397;28;46893;-78
2021/11/25 06:37:53;;;;;;;;;75.75;54.50;;;;;3.10;77.86;100395.56;5041560;28;45243;-76
2021/11/25 06:40:25;;;;;;;;;60.50;46.50;;;;;2.87;77.39;100362.94;5037686;28;45295;-70
2021/11/25 06:42:54;;;;;;;;;67.75;49.00;;;;;2.99;78.99;100382.72;5038504;28;45225;-75
2021/11/25 06:45:20;;;;;;;;;65.25;49.00;;;;;3.03;78.01;100394.81;5043081;28;46304;-72
2021/11/25 06:47:47;;;;;;;;;70.00;52.25;;;;;3.01;77.84;100391.38;5042184;28;45461;-70
2021/11/25 06:50:13;;;;;;;;;72.00;51.75;;;;;2.96;77.91;100403.56;5038335;28;45297;-74
2021/11/25 06:52:40;;;;;;;;;58.75;43.75;;;;;2.94;78.42;100406.16;5041743;28;45549;-77
2021/11/25 06:55:08;;;;;;;;;67.00;51.00;;;;;2.92;78.08;100398.41;5043790;28;45266;-82
2021/11/25 06:57:34;;;;;;;;;70.50;52.50;;;;;2.88;77.95;100394.13;5044341;28;45306;-72
2021/11/25 07:00:00;;;;;;;;;71.00;52.25;;;;;2.68;78.62;100368.34;5045513;28;45312;-70
2021/11/25 07:02:25;;;;;;;;;66.75;50.25;;;;;2.89;78.57;100406.22;5046846;28;45372;-75
2021/11/25 07:04:52;;;;;;;;;68.00;50.25;;;;;2.91;78.54;100406.19;5045476;28;46055;-76
2021/11/25 07:07:17;;;;;;;;;65.50;50.00;;;;;2.92;78.25;100408.78;5044381;27;44832;-75
2021/11/25 07:09:43;;;;;;;;;73.00;52.75;;;;;2.91;77.88;100416.59;5044413;28;45355;-82
2021/11/25 07:12:08;;;;;;;;;62.50;48.50;;;;;2.92;78.32;100431.28;5043917;28;45514;-72
2021/11/25 07:14:33;;;;;;;;;71.50;50.50;;;;;2.90;77.99;100426.13;5044083;28;45311;-76
2021/11/25 07:16:59;;;;;;;;;69.75;52.00;;;;;2.89;78.75;100424.41;5041178;27;45297;-79
2021/11/25 07:19:24;;;;;;;;;72.25;52.75;;;;;2.88;78.33;100434.81;5035962;27;45269;-72
2021/11/25 07:21:50;;;;;;;;;70.00;50.00;;;;;2.85;79.29;100421.84;5016973;28;45511;-81
2021/11/25 07:24:15;;;;;;;;;68.25;52.75;;;;;2.89;78.05;100436.53;5014626;28;45264;-80
2021/11/25 07:26:41;;;;;;;;;63.25;48.50;;;;;2.91;78.21;100429.56;5013284;27;45462;-74
2021/11/25 07:29:07;;;;;;;;;71.50;55.00;;;;;2.96;78.96;100427.78;5020229;28;44869;-81
2021/11/25 07:31:35;;;;;;;;;72.00;52.25;;;;;2.92;78.93;100429.56;5032726;27;45355;-73
2021/11/25 07:34:02;;;;;;;;;68.50;52.00;;;;;2.84;78.75;100408.00;5013799;28;45539;-72
2021/11/25 07:36:27;;;;;;;;;70.50;51.75;;;;;3.08;78.78;100445.00;5013753;28;45377;-72
2021/11/25 07:38:53;;;;;;;;;67.25;50.25;;;;;3.12;78.66;100446.69;5012224;28;45392;-71
2021/11/25 07:41:18;;;;;;;;;66.50;50.50;;;;;3.12;78.18;100445.81;5012078;28;45375;-72
2021/11/25 07:43:45;;;;;;;;;71.75;54.00;;;;;2.98;77.98;100432.97;5012346;28;46120;-75
2021/11/25 07:46:10;;;;;;;;;72.00;53.25;;;;;3.16;78.10;100465.69;5011319;28;45412;-76
2021/11/25 07:48:36;;;;;;;;;67.50;52.00;;;;;3.15;78.57;100466.56;5051075;27;45392;-80
2021/11/25 07:51:02;;;;;;;;;70.00;52.00;;;;;3.16;78.15;100470.88;5014585;28;45350;-80
2021/11/25 07:53:27;;;;;;;;;70.50;54.25;;;;;3.14;78.73;100459.63;5016328;28;46026;-82
2021/11/25 07:55:53;;;;;;;;;69.50;51.25;;;;;3.30;78.37;100471.59;5015855;28;45278;-77
2021/11/25 07:58:20;;;;;;;;;64.25;51.25;;;;;3.38;78.78;100481.91;5013818;28;45260;-77
2021/11/25 08:00:45;;;;;;;;;67.50;51.75;;;;;3.43;78.04;100487.06;5018029;28;45367;-77
2021/11/25 08:03:11;;;;;;;;;65.50;50.25;;;;;3.45;78.07;100482.69;5022623;28;47177;-78
2021/11/25 08:05:36;;;;;;;;;67.00;50.00;;;;;3.45;76.95;100482.69;5019494;27;45332;-75
2021/11/25 08:08:02;;;;;;;;;71.50;51.75;;;;;3.40;77.20;100481.91;5015970;28;45507;-75
2021/11/25 08:10:28;;;;;;;;;72.00;53.00;;;;;3.44;76.95;100497.44;5017210;28;45364;-73
2021/11/25 08:12:54;;;;;;;;;68.00;52.50;;;;;3.41;77.02;100494.00;5013875;28;48222;-73
2021/11/25 08:15:20;;;;;;;;;66.75;50.00;;;;;3.40;77.34;100505.28;5017611;28;45299;-79
2021/11/25 08:17:46;;;;;;;;;67.75;55.00;;;;;3.39;77.02;100503.56;5017335;28;45338;-71
2021/11/25 08:20:12;;;;;;;;;63.00;49.00;;;;;3.42;78.03;100503.53;5015406;28;45331;-74
2021/11/25 08:22:39;;;;;;;;;67.50;51.50;;;;;3.44;77.40;100510.44;5014241;28;45406;-72
2021/11/25 08:25:06;;;;;;;;;68.75;51.00;;;;;3.35;78.01;100497.53;5014441;28;45537;-75
2021/11/25 08:27:32;;;;;;;;;71.25;51.00;;;;;3.48;77.34;100504.31;5013790;28;45660;-75
2021/11/25 08:29:58;;;;;;;;;69.25;52.75;;;;;3.57;77.67;100511.16;5014268;28;45505;-72
2021/11/25 08:32:23;;;;;;;;;60.75;50.75;;;;;3.62;77.75;100501.56;5015207;28;45987;-73
2021/11/25 08:34:49;;;;;;;;;68.75;51.75;;;;;3.66;76.82;100512.75;5015270;28;45302;-74
2021/11/25 08:37:14;;;;;;;;;67.75;53.50;;;;;3.70;76.61;100513.59;5015946;28;45295;-73
2021/11/25 08:39:40;;;;;;;;;71.00;52.00;;;;;3.73;76.93;100514.44;5015884;28;45141;-77
2021/11/25 08:42:06;;;;;;;;;69.75;54.00;;;;;3.77;77.21;100518.72;5015524;28;45845;-77
2021/11/25 08:44:32;;;;;;;;;67.50;48.75;;;;;3.75;76.80;100507.47;5016695;28;45325;-77
2021/11/25 08:46:59;;;;;;;;;67.50;51.50;;;;;3.88;76.66;100510.75;5017684;27;45317;-77
2021/11/25 08:49:24;;;;;;;;;70.00;52.25;;;;;3.97;76.38;100512.38;5016023;28;45584;-80
2021/11/25 08:51:50;;;;;;;;;73.00;49.75;;;;;4.00;76.30;100514.06;5014080;28;47959;-78
2021/11/25 08:54:17;;;;;;;;;66.50;50.75;;;;;4.01;76.00;100507.97;5015941;28;45361;-77
2021/11/25 08:56:42;;;;;;;;;73.25;52.50;;;;;4.02;75.46;100517.50;5016604;28;45384;-76
2021/11/25 08:59:07;;;;;;;;;67.00;49.75;;;;;4.06;76.22;100513.97;5016779;28;45522;-76
2021/11/25 09:01:33;;;;;;;;;65.00;48.25;;;;;4.12;75.56;100515.63;5014709;28;47047;-76
2021/11/25 09:03:58;;;;;;;;;70.25;54.25;;;;;4.23;75.76;100522.41;5018762;28;45379;-77
2021/11/25 09:06:24;;;;;;;;;62.50;49.50;;;;;4.31;75.17;100518.84;5017976;28;45350;-77
2021/11/25 09:08:49;;;;;;;;;72.00;53.75;;;;;4.40;75.40;100508.28;5019954;27;45481;-75
2021/11/25 09:11:15;;;;;;;;;68.50;52.00;;;;;4.29;75.39;100463.31;5020582;28;45992;-77
2021/11/25 09:13:41;;;;;;;;;69.75;50.00;;;;;4.81;74.21;100514.53;5014707;28;45282;-78
2021/11/25 09:16:07;;;;;;;;;69.75;52.50;;;;;4.92;73.95;100500.47;5014033;27;45271;-76
2021/11/25 09:18:33;;;;;;;;;66.00;49.00;;;;;5.07;74.18;100497.56;5015301;28;45408;-78
2021/11/25 09:20:59;;;;;;;;;71.00;54.25;;;;;5.18;73.26;100492.16;5015051;28;47186;-76
2021/11/25 09:23:24;;;;;;;;;61.00;48.25;;;;;5.33;73.52;100495.34;5015065;28;45559;-78
2021/11/25 09:25:51;;;;;;;;;74.75;55.00;;;;;5.43;73.09;100490.81;5015272;28;45456;-77
2021/11/25 09:28:24;;;;;;;;;73.25;54.50;;;;;5.66;72.47;100496.41;5014914;28;45547;-77
2021/11/25 09:30:50;;;;;;;;;63.25;48.00;;;;;5.78;71.79;100497.06;5015746;28;46112;-76
2021/11/25 09:33:17;;;;;;;;;66.50;52.00;;;;;5.84;71.11;100489.09;5018128;28;45432;-77
2021/11/25 09:35:42;;;;;;;;;79.33;59.67;;;;;5.89;71.53;100468.13;5018631;28;45448;-78
2021/11/25 09:38:09;;;;;;;;;67.00;51.00;;;;;6.04;71.53;100478.25;5015627;28;45455;-76
2021/11/25 09:40:36;;;;;;;;;73.25;54.75;;;;;6.23;71.20;100483.88;5014128;28;45385;-74
2021/11/25 09:43:08;;;;;;;;;68.25;50.50;;;;;6.37;70.17;100486.16;5014735;28;45302;-75
2021/11/25 09:45:37;;;;;;;;;64.25;49.50;;;;;6.47;70.23;100491.16;5014870;28;45334;-74
2021/11/25 09:48:06;;;;;;;;;62.25;49.25;;;;;6.51;69.21;100487.56;5015301;28;45487;-77
2021/11/25 09:50:34;;;;;;;;;67.00;49.00;;;;;6.53;69.30;100488.41;5016750;28;46295;-74
2021/11/25 09:53:03;;;;;;;;;63.50;47.50;;;;;6.47;67.71;100488.56;5016763;28;45389;-76
2021/11/25 09:55:31;;;;;;;;;63.50;48.00;;;;;6.18;68.45;100457.00;5016166;28;45252;-76
2021/11/25 09:57:56;;;;;;;;;61.00;42.75;;;;;6.26;68.71;100493.41;5015755;28;45566;-77
2021/11/25 10:00:24;;;;;;;;;67.00;48.25;;;;;6.23;68.97;100494.31;5015711;28;45371;-78
2021/11/25 10:02:50;;;;;;;;;62.00;48.00;;;;;6.27;69.36;100497.72;5013389;28;45515;-77
2021/11/25 10:05:16;;;;;;;;;68.25;51.25;;;;;6.30;69.04;100508.09;5015538;28;45246;-77
2021/11/25 10:07:45;;;;;;;;;58.00;46.50;;;;;6.27;68.64;100500.34;5015941;28;45214;-77
2021/11/25 10:10:24;;;;;;;;;64.50;49.75;;;;;6.21;69.58;100505.72;5014308;28;45439;-77
2021/11/25 10:12:51;;;;;;;;;65.50;50.75;;;;;6.09;67.74;100507.72;5014431;27;45215;-78
2021/11/25 10:15:32;;;;;;;;;70.50;51.50;;;;;6.03;69.16;100506.97;5014197;28;45306;-77
2021/11/25 10:18:00;;;;;;;;;66.75;51.25;;;;;6.07;68.66;100509.50;5015186;28;45333;-75
2021/11/25 10:21:01;;;;;;;;;69.50;52.00;;;;;6.22;68.41;100507.44;5012976;28;46245;-77
2021/11/25 10:23:30;;;;;;;;;68.75;50.25;;;;;6.39;69.23;100492.22;5008199;28;45436;-76
2021/11/25 10:26:01;;;;;;;;;67.75;50.00;;;;;6.53;68.19;100488.41;5014640;28;45354;-77
2021/11/25 10:28:29;;;;;;;;;63.75;49.25;;;;;6.64;68.01;100488.13;5013681;28;45618;-77
2021/11/25 10:31:00;;;;;;;;;70.75;50.50;;;;;6.71;67.72;100480.09;5014492;27;47167;-79
2021/11/25 10:33:30;;;;;;;;;65.75;48.00;;;;;6.86;67.75;100494.53;5012584;28;45389;-77
2021/11/25 10:38:39;;;;;;;;;68.25;50.75;;;;;7.06;65.81;100495.75;5015377;28;45416;-79
2021/11/25 10:41:19;;;;;;;;;65.50;50.50;;;;;7.10;67.14;100497.38;5014587;28;46053;-76
2021/11/25 10:43:59;;;;;;;;;69.25;50.75;;;;;7.13;66.78;100483.38;5012832;28;45612;-78
2021/11/25 10:46:40;;;;;;;;;67.50;49.75;;;;;7.28;66.39;100492.53;5012761;28;45416;-77
2021/11/25 10:49:06;;;;;;;;;66.25;51.50;;;;;7.35;66.20;100483.63;5015272;27;45287;-77
2021/11/25 10:51:35;;;;;;;;;70.00;53.25;;;;;7.39;65.82;100487.03;5014246;28;45511;-77
2021/11/25 10:54:12;;;;;;;;;71.25;53.25;;;;;7.38;65.55;100480.06;5014184;28;45331;-75
2021/11/25 10:56:42;;;;;;;;;73.50;55.75;;;;;7.37;65.72;100478.34;5014670;28;45325;-76
2021/11/25 10:59:11;;;;;;;;;72.25;53.25;;;;;7.40;65.46;100479.09;5018718;28;45337;-76
2021/11/25 11:01:44;;;;;;;;;68.50;52.75;;;;;7.49;65.90;100479.78;5021174;28;45356;-78
2021/11/25 11:04:11;;;;;;;;;68.00;50.75;;;;;7.44;66.01;100451.97;5015361;28;45207;-80
2021/11/25 11:06:38;;;;;;;;;70.75;54.00;;;;;7.41;65.82;100457.28;5015127;28;45360;-78
2021/11/25 11:09:27;;;;;;;;;69.00;52.75;;;;;7.49;65.91;100458.84;5015207;28;45263;-77
2021/11/25 11:12:21;;;;;;;;;75.75;56.25;;;;;7.59;66.11;100457.66;5016029;28;46122;-77
2021/11/25 11:15:12;;;;;;;;;73.50;53.00;;;;;7.67;66.14;100446.94;5014931;28;45399;-76
2021/11/25 11:17:47;;;;;;;;;59.25;48.25;;;;;7.80;64.85;100452.66;5013825;27;45269;-76
2021/11/25 11:20:16;;;;;;;;;69.50;51.00;;;;;7.81;65.17;100457.84;5013836;28;45289;-76
2021/11/25 11:22:53;;;;;;;;;71.50;53.00;;;;;7.68;65.05;100438.19;5013564;28;45570;-79
2021/11/25 11:25:21;;;;;;;;;63.75;49.50;;;;;7.81;65.57;100470.09;5014866;28;45878;-78